Clyde, Iowa
Current Conditions -  °F | °C
As of 11:29 AM on Thursday 23 Oct 2014 (Local Time) from KAMW Reporting Station
Overcast Overcast  
Wind Chill: 60°   Ceiling: 1000
Heat Index: 60°   Visibility: 8mi
Dew Point: 56°   Wind: 10mph
Humidity: 86%   Direction: 290°WNW
Pressure: 30.04"   Gusts: NA
Location:  41.9063°N, 93.2893°W
Report Text: KAMW 231629Z AUTO 29009KT 8SM OVC010 16/13 A3004 RMK AO2 CIG 005V014 T01560133
Loading
Personal Weather Stations






























Interactive Weather Map
Tropical Storm Tracking
New forecast layout! Learn more

10-Day Weather Forecast

Advertisements
Track Severe Weather on mobile